createdAt,value
2023-05-03T00:01:20.286Z,46.08
2023-05-03T00:03:29.445Z,46.32
2023-05-03T00:05:38.903Z,46.51
2023-05-03T00:07:48.552Z,46.61
2023-05-03T00:09:57.615Z,46.50
2023-05-03T00:12:07.404Z,46.49
2023-05-03T00:14:16.980Z,46.28
2023-05-03T00:16:26.542Z,46.68
2023-05-03T00:18:35.656Z,46.95
2023-05-03T00:20:44.930Z,46.91
2023-05-03T00:22:54.975Z,47.10
2023-05-03T00:25:05.063Z,47.25
2023-05-03T00:27:16.490Z,47.28
2023-05-03T00:29:26.241Z,47.39
2023-05-03T00:31:35.548Z,47.43
2023-05-03T00:33:45.112Z,47.31
2023-05-03T00:35:54.259Z,47.43
2023-05-03T00:38:03.606Z,47.66
2023-05-03T00:40:18.996Z,47.62
2023-05-03T00:42:28.098Z,47.78
2023-05-03T00:44:37.187Z,47.75
2023-05-03T00:46:46.940Z,47.81
2023-05-03T00:48:56.416Z,48.02
2023-05-03T00:51:07.610Z,48.03
2023-05-03T00:53:19.808Z,48.41
2023-05-03T00:55:32.006Z,48.42
2023-05-03T00:57:41.281Z,48.60
2023-05-03T00:59:54.455Z,48.63
2023-05-03T01:02:04.847Z,48.82
2023-05-03T01:04:14.095Z,48.69
2023-05-03T01:06:40.274Z,48.72
2023-05-03T01:08:54.897Z,48.60
2023-05-03T01:11:09.499Z,48.91
2023-05-03T01:13:24.754Z,48.92
2023-05-03T01:15:51.607Z,49.06
2023-05-03T01:18:09.310Z,49.21
2023-05-03T01:20:25.131Z,49.09
2023-05-03T01:22:45.046Z,48.95
2023-05-03T01:25:09.550Z,49.10
2023-05-03T01:27:19.665Z,49.24
2023-05-03T01:29:28.928Z,49.28
2023-05-03T01:31:46.501Z,49.36
2023-05-03T01:34:13.225Z,49.32
2023-05-03T01:36:30.080Z,49.57
2023-05-03T01:38:41.569Z,49.55
2023-05-03T01:40:54.215Z,49.61
2023-05-03T01:43:04.358Z,49.60
2023-05-03T01:45:14.701Z,49.52
2023-05-03T01:47:24.858Z,49.43
2023-05-03T01:49:35.563Z,49.40
2023-05-03T01:51:44.817Z,49.59
2023-05-03T01:53:54.494Z,49.67
2023-05-03T01:56:03.815Z,49.65
2023-05-03T01:58:15.373Z,49.73
2023-05-03T02:00:25.427Z,49.63
2023-05-03T02:02:34.993Z,49.68
2023-05-03T02:04:44.222Z,49.76
2023-05-03T02:06:54.741Z,49.75
2023-05-03T02:09:05.653Z,49.88
2023-05-03T02:11:14.714Z,49.88
2023-05-03T02:13:24.070Z,50.06
2023-05-03T02:15:33.474Z,50.24
2023-05-03T02:17:42.938Z,50.32
2023-05-03T02:19:52.998Z,50.36
2023-05-03T02:22:02.395Z,50.53
2023-05-03T02:24:12.142Z,50.57
2023-05-03T02:26:21.806Z,50.74
2023-05-03T02:28:30.864Z,50.87
2023-05-03T02:30:40.203Z,50.83
2023-05-03T02:32:49.897Z,50.93
2023-05-03T02:34:59.895Z,50.91
2023-05-03T02:37:09.105Z,50.93
2023-05-03T02:39:18.702Z,51.13
2023-05-03T02:41:29.020Z,51.03
2023-05-03T02:43:39.059Z,51.16
2023-05-03T02:45:48.743Z,51.19
2023-05-03T02:47:59.296Z,51.34
2023-05-03T02:50:10.312Z,51.49
2023-05-03T02:52:21.038Z,51.54
2023-05-03T02:54:30.425Z,51.78
2023-05-03T02:56:41.026Z,51.84
2023-05-03T02:58:50.343Z,51.97
2023-05-03T03:00:59.849Z,51.95
2023-05-03T03:03:11.399Z,52.07
2023-05-03T03:05:21.612Z,52.25
2023-05-03T03:07:31.683Z,52.30
2023-05-03T03:09:40.896Z,52.40
2023-05-03T03:11:53.299Z,52.47
2023-05-03T03:14:03.106Z,52.50
2023-05-03T03:16:12.475Z,52.69
2023-05-03T03:18:22.122Z,52.88
2023-05-03T03:20:34.530Z,53.00
2023-05-03T03:22:45.792Z,53.07
2023-05-03T03:24:55.364Z,53.09
2023-05-03T03:27:04.996Z,53.16
2023-05-03T03:29:14.107Z,53.21
2023-05-03T03:31:23.640Z,53.35
2023-05-03T03:33:32.780Z,53.33
2023-05-03T03:35:43.971Z,53.43
2023-05-03T03:37:53.852Z,53.53
2023-05-03T03:40:04.868Z,53.56
2023-05-03T03:42:15.394Z,53.64
2023-05-03T03:44:24.743Z,53.69
2023-05-03T03:46:34.246Z,53.73
2023-05-03T03:48:44.126Z,53.85
2023-05-03T03:50:54.125Z,53.96
2023-05-03T03:53:04.255Z,53.93
2023-05-03T03:55:14.645Z,54.15
2023-05-03T03:57:25.499Z,54.12
2023-05-03T03:59:34.840Z,54.26
2023-05-03T04:01:45.252Z,54.40
2023-05-03T04:03:54.978Z,54.43
2023-05-03T04:06:05.280Z,54.46
2023-05-03T04:08:14.531Z,54.65
2023-05-03T04:10:23.994Z,54.60
2023-05-03T04:12:34.479Z,54.70
2023-05-03T04:14:44.436Z,54.68
2023-05-03T04:16:53.870Z,54.79
2023-05-03T04:19:03.449Z,54.87
2023-05-03T04:21:14.379Z,54.89
2023-05-03T04:23:23.991Z,54.98
2023-05-03T04:25:33.201Z,55.02
2023-05-03T04:27:46.278Z,55.17
2023-05-03T04:29:56.356Z,55.29
2023-05-03T04:32:07.070Z,55.35
2023-05-03T04:34:16.557Z,55.38
2023-05-03T04:36:30.169Z,55.38
2023-05-03T04:38:40.745Z,55.40
2023-05-03T04:40:50.301Z,55.61
2023-05-03T04:42:59.717Z,55.62
2023-05-03T04:45:11.261Z,55.61
2023-05-03T04:47:20.589Z,55.70
2023-05-03T04:49:29.588Z,55.78
2023-05-03T04:51:39.558Z,55.86
2023-05-03T04:53:48.893Z,55.80
2023-05-03T04:55:59.967Z,55.90
2023-05-03T04:58:10.360Z,55.87
2023-05-03T05:00:22.929Z,55.94
2023-05-03T05:02:36.950Z,55.99
2023-05-03T05:04:47.757Z,56.09
2023-05-03T05:06:58.046Z,56.23
2023-05-03T05:09:22.300Z,56.31
2023-05-03T05:11:33.085Z,56.37
2023-05-03T05:13:42.877Z,56.44
2023-05-03T05:15:53.055Z,56.49
2023-05-03T05:18:03.590Z,56.66
2023-05-03T05:20:14.912Z,56.66
2023-05-03T05:22:28.213Z,56.82
2023-05-03T05:24:37.844Z,56.83
2023-05-03T05:26:47.500Z,56.92
2023-05-03T05:28:57.266Z,56.97
2023-05-03T05:31:06.419Z,57.01
2023-05-03T05:33:16.767Z,57.17
2023-05-03T05:35:29.058Z,57.28
2023-05-03T05:37:38.397Z,57.40
2023-05-03T05:39:47.613Z,57.51
2023-05-03T05:41:59.305Z,57.63
2023-05-03T05:44:08.979Z,57.66
2023-05-03T05:46:18.273Z,57.75
2023-05-03T05:48:27.685Z,57.83
2023-05-03T05:50:37.434Z,58.00
2023-05-03T05:52:50.997Z,58.09
2023-05-03T05:55:00.570Z,58.24
2023-05-03T05:57:09.966Z,58.28
2023-05-03T05:59:19.317Z,58.37
2023-05-03T06:01:28.882Z,58.37
2023-05-03T06:03:38.564Z,58.48
2023-05-03T06:05:49.637Z,58.67
2023-05-03T06:07:59.026Z,58.74
2023-05-03T06:10:09.510Z,58.82
2023-05-03T06:12:22.885Z,58.84
2023-05-03T06:14:32.112Z,58.98
2023-05-03T06:16:42.549Z,58.98
2023-05-03T06:18:52.354Z,59.06
2023-05-03T06:21:01.803Z,59.18
2023-05-03T06:23:11.939Z,59.39
2023-05-03T06:25:22.018Z,59.46
2023-05-03T06:27:32.643Z,59.66
2023-05-03T06:29:44.755Z,59.69
2023-05-03T06:31:52.693Z,59.86
2023-05-03T06:34:02.295Z,59.98
2023-05-03T06:36:12.525Z,60.18
2023-05-03T06:38:22.644Z,60.26
2023-05-03T06:40:31.796Z,60.36
2023-05-03T06:42:41.086Z,60.42
2023-05-03T06:44:54.086Z,60.42
2023-05-03T06:47:04.263Z,60.55
2023-05-03T06:49:13.903Z,60.60
2023-05-03T06:51:27.734Z,60.62
2023-05-03T06:53:38.685Z,60.76
2023-05-03T06:55:48.724Z,60.86
2023-05-03T06:57:58.461Z,60.95
2023-05-03T07:00:08.625Z,61.09
2023-05-03T07:02:17.807Z,61.21
2023-05-03T07:04:27.173Z,61.31
2023-05-03T07:06:48.223Z,61.37
2023-05-03T07:09:05.194Z,61.59
2023-05-03T07:11:14.436Z,61.82
2023-05-03T07:13:23.903Z,62.00
2023-05-03T07:15:33.797Z,61.85
2023-05-03T07:17:43.089Z,62.06
2023-05-03T07:19:53.296Z,62.08
2023-05-03T07:22:03.775Z,62.06
2023-05-03T07:24:14.239Z,62.11
2023-05-03T07:26:23.782Z,62.33
2023-05-03T07:28:33.032Z,62.40
2023-05-03T07:30:42.387Z,62.50
2023-05-03T07:32:52.284Z,62.62
2023-05-03T07:35:01.653Z,62.53
2023-05-03T07:37:10.775Z,62.69
2023-05-03T07:39:19.996Z,62.84
2023-05-03T07:41:29.393Z,62.71
2023-05-03T07:43:38.697Z,62.79
2023-05-03T07:45:47.792Z,62.79
2023-05-03T07:47:58.154Z,62.83
2023-05-03T07:50:08.260Z,62.83
2023-05-03T07:52:17.437Z,62.85
2023-05-03T07:54:27.327Z,63.00
2023-05-03T07:56:36.464Z,62.75
2023-05-03T07:58:48.674Z,62.82
2023-05-03T08:01:00.592Z,62.91
2023-05-03T08:03:10.133Z,62.95
2023-05-03T08:05:22.819Z,63.04
2023-05-03T08:07:32.269Z,63.04
2023-05-03T08:09:41.915Z,63.12
2023-05-03T08:11:51.127Z,63.38
2023-05-03T08:14:01.120Z,63.55
2023-05-03T08:16:11.160Z,63.48
2023-05-03T08:18:22.985Z,63.49
2023-05-03T08:20:37.038Z,63.54
2023-05-03T08:22:47.077Z,63.63
2023-05-03T08:24:56.943Z,63.52
2023-05-03T08:27:07.335Z,63.71
2023-05-03T08:29:16.493Z,63.79
2023-05-03T08:31:26.006Z,63.65
2023-05-03T08:33:35.291Z,63.85
2023-05-03T08:35:44.521Z,63.82
2023-05-03T08:37:56.789Z,63.93
2023-05-03T08:40:12.438Z,64.06
2023-05-03T08:42:23.332Z,64.10
2023-05-03T08:44:33.926Z,64.13
2023-05-03T08:46:44.790Z,64.24
2023-05-03T08:48:55.465Z,64.35
2023-05-03T08:51:08.657Z,64.31
2023-05-03T08:53:17.784Z,64.37
2023-05-03T08:55:27.549Z,64.46
2023-05-03T08:57:37.611Z,64.31
2023-05-03T08:59:54.815Z,64.34
2023-05-03T09:02:04.064Z,64.35
2023-05-03T09:04:14.502Z,64.48
2023-05-03T09:06:29.842Z,64.55
2023-05-03T09:08:46.355Z,64.73
2023-05-03T09:10:55.745Z,64.54
2023-05-03T09:13:05.467Z,64.54
2023-05-03T09:15:27.567Z,64.56
2023-05-03T09:17:34.710Z,64.57
2023-05-03T09:19:55.608Z,64.57
2023-05-03T09:22:10.833Z,64.77
2023-05-03T09:24:21.331Z,64.95
2023-05-03T09:26:37.315Z,64.83
2023-05-03T09:28:47.089Z,64.90
2023-05-03T09:31:08.305Z,64.99
2023-05-03T09:33:21.750Z,64.96
2023-05-03T09:35:32.648Z,64.98
2023-05-03T09:37:44.777Z,65.15
2023-05-03T09:40:10.639Z,65.09
2023-05-03T09:42:20.948Z,65.04
2023-05-03T09:44:44.673Z,65.11
2023-05-03T09:47:10.211Z,65.09
2023-05-03T09:49:19.562Z,65.30
2023-05-03T09:51:29.792Z,65.10
2023-05-03T09:53:40.011Z,65.05
2023-05-03T09:55:51.162Z,65.16
2023-05-03T09:58:00.920Z,65.07
2023-05-03T10:00:14.041Z,65.21
2023-05-03T10:18:05.603Z,65.41
2023-05-03T10:20:41.130Z,65.35
2023-05-03T10:23:14.357Z,65.36
2023-05-03T10:26:03.324Z,65.39
2023-05-03T10:28:34.796Z,65.72
2023-05-03T10:31:04.562Z,65.72
2023-05-03T10:33:36.769Z,65.92
2023-05-03T10:36:10.990Z,65.92
2023-05-03T10:38:41.087Z,65.90
2023-05-03T10:41:10.443Z,66.00
2023-05-03T10:43:49.368Z,66.08
2023-05-03T10:46:39.401Z,66.15
2023-05-03T10:49:22.498Z,66.33
2023-05-03T10:51:43.578Z,66.33
2023-05-03T10:54:13.763Z,66.46
2023-05-03T10:56:27.288Z,66.58
2023-05-03T10:58:48.554Z,66.60
2023-05-03T11:01:19.460Z,66.62
2023-05-03T11:03:54.150Z,66.65
2023-05-03T11:06:28.556Z,66.73
2023-05-03T11:08:53.749Z,66.88
2023-05-03T11:11:15.852Z,66.79
2023-05-03T11:13:36.627Z,67.02
2023-05-03T11:16:07.260Z,67.02
2023-05-03T11:18:20.098Z,67.06
2023-05-03T11:20:40.890Z,67.25
2023-05-03T11:23:00.079Z,67.11
2023-05-03T11:25:14.662Z,67.12
2023-05-03T11:27:47.995Z,67.17
2023-05-03T11:30:18.560Z,67.27
2023-05-03T11:32:30.762Z,67.33
2023-05-03T11:35:03.148Z,67.58
2023-05-03T11:37:14.018Z,67.54
2023-05-03T11:39:43.489Z,67.64
2023-05-03T11:42:08.750Z,67.56
2023-05-03T11:44:30.719Z,67.57
2023-05-03T11:47:00.442Z,67.82
2023-05-03T11:49:30.035Z,67.88
2023-05-03T11:51:59.816Z,67.96
2023-05-03T11:54:25.383Z,68.09
2023-05-03T11:56:47.853Z,68.12
2023-05-03T11:59:17.488Z,68.36
2023-05-03T12:01:38.106Z,68.29
2023-05-03T12:03:49.888Z,68.26
2023-05-03T12:06:04.407Z,68.28
2023-05-03T12:08:36.896Z,68.22
2023-05-03T12:10:59.593Z,68.29
2023-05-03T12:13:33.526Z,68.28
2023-05-03T12:18:27.708Z,68.42
2023-05-03T12:23:34.361Z,68.76
2023-05-03T12:26:05.436Z,68.81
2023-05-03T12:28:25.153Z,68.91
2023-05-03T12:30:56.590Z,69.17
2023-05-03T12:33:28.465Z,69.27
2023-05-03T12:35:59.331Z,69.35
2023-05-03T12:38:10.188Z,69.47
2023-05-03T12:40:41.238Z,69.61
2023-05-03T12:43:11.372Z,69.68
2023-05-03T12:45:28.288Z,69.64
2023-05-03T12:47:48.413Z,69.77
2023-05-03T12:50:12.830Z,69.79
2023-05-03T12:55:00.435Z,69.72
2023-05-03T12:57:37.121Z,69.79
2023-05-03T12:59:56.520Z,69.82
2023-05-03T13:06:58.848Z,69.81
2023-05-03T13:09:38.605Z,69.89
2023-05-03T13:12:20.815Z,69.91
2023-05-03T13:14:33.861Z,69.97
2023-05-03T13:16:54.391Z,70.10
2023-05-03T13:19:23.875Z,70.13
2023-05-03T13:21:53.149Z,70.08
2023-05-03T13:24:22.702Z,70.06
2023-05-03T13:26:52.234Z,70.05
2023-05-03T13:29:22.501Z,70.08
2023-05-03T13:31:42.887Z,70.19
2023-05-03T13:34:02.202Z,70.14
2023-05-03T13:36:23.109Z,70.27
2023-05-03T13:38:45.318Z,70.34
2023-05-03T13:41:14.920Z,70.34
2023-05-03T13:43:29.907Z,70.43
2023-05-03T13:45:53.207Z,70.43
2023-05-03T13:48:18.445Z,70.41
2023-05-03T13:50:34.315Z,70.57
2023-05-03T13:52:45.048Z,70.58
2023-05-03T13:55:04.832Z,70.62
2023-05-03T13:57:34.232Z,70.75
2023-05-03T14:00:03.778Z,70.81
2023-05-03T14:02:33.350Z,70.88
2023-05-03T14:04:46.842Z,71.00
2023-05-03T14:07:16.770Z,71.03
2023-05-03T14:09:46.178Z,71.07
2023-05-03T14:11:57.381Z,71.08
2023-05-03T14:14:30.161Z,71.10
2023-05-03T14:16:59.639Z,71.22
2023-05-03T14:19:12.760Z,71.18
2023-05-03T14:21:33.868Z,71.33
2023-05-03T14:23:43.360Z,71.39
2023-05-03T14:26:12.939Z,71.51
2023-05-03T14:28:42.483Z,71.56
2023-05-03T14:30:55.202Z,71.59
2023-05-03T14:33:16.467Z,71.50
2023-05-03T14:35:35.866Z,71.52
2023-05-03T14:38:06.542Z,71.61
2023-05-03T14:40:25.965Z,71.66
2023-05-03T14:42:55.260Z,71.65
2023-05-03T14:45:06.150Z,71.65
2023-05-03T14:47:27.200Z,71.76
2023-05-03T14:49:41.205Z,71.76
2023-05-03T14:52:10.683Z,71.78
2023-05-03T14:54:24.558Z,71.61
2023-05-03T14:56:53.956Z,71.56
2023-05-03T14:59:23.326Z,71.60
2023-05-03T15:01:53.936Z,71.67
2023-05-03T15:04:24.108Z,71.60
2023-05-03T15:06:43.589Z,71.56
2023-05-03T15:09:13.683Z,71.64
2023-05-03T15:11:43.269Z,71.65
2023-05-03T15:14:13.081Z,71.50
2023-05-03T15:16:43.034Z,71.49
2023-05-03T15:19:07.577Z,71.34
2023-05-03T15:21:49.694Z,71.45
2023-05-03T15:24:18.098Z,71.57
2023-05-03T15:26:48.120Z,71.61
2023-05-03T15:29:17.711Z,71.31
2023-05-03T15:31:47.902Z,71.24
2023-05-03T15:33:57.599Z,70.81
2023-05-03T15:36:17.870Z,70.57
2023-05-03T15:38:27.294Z,70.08
2023-05-03T15:40:47.264Z,69.32
2023-05-03T15:43:06.812Z,68.68
2023-05-03T15:45:37.025Z,68.04
2023-05-03T15:47:58.446Z,67.06
2023-05-03T15:50:18.032Z,66.24
2023-05-03T15:52:47.749Z,65.51
2023-05-03T15:55:07.615Z,64.81
2023-05-03T15:57:27.474Z,64.64
2023-05-03T15:59:56.843Z,64.27
2023-05-03T16:02:15.986Z,63.82
2023-05-03T16:04:45.722Z,63.12
2023-05-03T16:07:08.025Z,62.59
2023-05-03T16:09:37.756Z,62.09
2023-05-03T16:12:07.735Z,61.43
2023-05-03T16:14:26.497Z,61.00
2023-05-03T16:16:56.292Z,60.49
2023-05-03T16:19:15.629Z,60.10
2023-05-03T16:21:45.693Z,59.83
2023-05-03T16:24:15.266Z,59.60
2023-05-03T16:26:35.075Z,59.32
2023-05-03T16:28:54.580Z,59.23
2023-05-03T16:31:23.862Z,58.99
2023-05-03T16:33:53.239Z,58.51
2023-05-03T16:36:02.915Z,58.11
2023-05-03T16:38:16.302Z,57.60
2023-05-03T16:40:46.493Z,57.38
2023-05-03T16:43:04.103Z,57.22
2023-05-03T16:45:33.567Z,56.57
2023-05-03T16:47:43.123Z,56.48
2023-05-03T16:50:14.204Z,56.39
2023-05-03T16:52:28.068Z,56.10
2023-05-03T16:54:55.987Z,55.99
2023-05-03T16:57:25.480Z,56.29
2023-05-03T16:59:46.364Z,56.12
2023-05-03T17:02:06.834Z,55.86
2023-05-03T17:04:16.841Z,55.60
2023-05-03T17:06:37.173Z,55.13
2023-05-03T17:08:49.582Z,55.01
2023-05-03T17:11:13.403Z,54.89
2023-05-03T17:13:34.811Z,54.81
2023-05-03T17:15:53.594Z,54.65
2023-05-03T17:18:23.462Z,54.65
2023-05-03T17:20:43.371Z,54.37
2023-05-03T17:23:13.089Z,54.20
2023-05-03T17:25:26.192Z,54.20
2023-05-03T17:27:47.482Z,54.34
2023-05-03T17:30:20.811Z,53.85
2023-05-03T17:32:34.033Z,53.18
2023-05-03T17:34:52.561Z,52.80
2023-05-03T17:37:14.669Z,52.55
2023-05-03T17:39:30.046Z,52.23
2023-05-03T17:41:41.327Z,51.73
2023-05-03T17:44:11.089Z,51.63
2023-05-03T17:46:41.017Z,51.40
2023-05-03T17:49:01.487Z,51.42
2023-05-03T17:51:12.916Z,51.51
2023-05-03T17:53:41.093Z,51.57
2023-05-03T17:56:00.990Z,51.80
2023-05-03T17:58:30.622Z,51.40
2023-05-03T18:00:58.922Z,51.49
2023-05-03T18:03:28.432Z,51.24
2023-05-03T18:05:49.550Z,51.20
2023-05-03T18:08:12.534Z,50.95
2023-05-03T18:10:43.616Z,50.66
2023-05-03T18:13:04.806Z,50.09
2023-05-03T18:15:28.999Z,50.10
2023-05-03T18:17:51.661Z,50.17
2023-05-03T18:20:21.489Z,50.12
2023-05-03T18:22:50.346Z,49.53
2023-05-03T18:25:02.429Z,49.04
2023-05-03T18:27:22.767Z,49.11
2023-05-03T18:29:43.465Z,49.34
2023-05-03T18:32:12.992Z,48.68
2023-05-03T18:34:42.441Z,48.65
2023-05-03T18:37:13.059Z,48.36
2023-05-03T18:39:32.587Z,48.29
2023-05-03T18:41:42.240Z,48.52
2023-05-03T18:44:08.927Z,48.15
2023-05-03T18:46:38.918Z,47.78
2023-05-03T18:49:00.187Z,47.79
2023-05-03T18:51:31.755Z,47.50
2023-05-03T18:54:00.655Z,47.55
2023-05-03T18:56:31.762Z,47.36
2023-05-03T18:58:52.565Z,47.50
2023-05-03T19:01:22.171Z,47.68
2023-05-03T19:03:51.910Z,47.51
2023-05-03T19:06:04.496Z,47.19
2023-05-03T19:08:14.068Z,47.05
2023-05-03T19:10:44.490Z,46.91
2023-05-03T19:13:07.678Z,46.81
2023-05-03T19:15:37.104Z,46.54
2023-05-03T19:17:47.859Z,46.29
2023-05-03T19:20:17.948Z,46.40
2023-05-03T19:22:47.981Z,45.50
2023-05-03T19:25:17.602Z,45.01
2023-05-03T19:27:47.261Z,44.84
2023-05-03T19:29:59.953Z,44.69
2023-05-03T19:32:12.410Z,44.78
2023-05-03T19:34:25.069Z,44.80
2023-05-03T19:36:37.396Z,44.44
2023-05-03T19:39:11.747Z,44.10
2023-05-03T19:41:25.578Z,43.82
2023-05-03T19:43:57.704Z,43.53
2023-05-03T19:46:13.000Z,43.53
2023-05-03T19:48:35.578Z,43.69
2023-05-03T19:50:50.739Z,43.74
2023-05-03T19:53:20.445Z,43.84
2023-05-03T19:55:59.573Z,43.59
2023-05-03T19:58:20.000Z,43.67
2023-05-03T20:00:30.145Z,43.76
2023-05-03T20:02:50.826Z,43.88
2023-05-03T20:05:12.026Z,43.80
2023-05-03T20:07:31.475Z,43.09
2023-05-03T20:09:50.697Z,43.03
2023-05-03T20:12:03.093Z,42.95
2023-05-03T20:14:32.718Z,42.35
2023-05-03T20:16:57.110Z,42.80
2023-05-03T20:19:09.551Z,43.11
2023-05-03T20:21:32.786Z,42.86
2023-05-03T20:23:54.948Z,42.88
2023-05-03T20:26:15.347Z,42.54
2023-05-03T20:28:27.990Z,42.95
2023-05-03T20:30:37.339Z,42.80
2023-05-03T20:32:47.804Z,42.71
2023-05-03T20:35:03.074Z,42.78
2023-05-03T20:37:32.623Z,42.42
2023-05-03T20:39:42.187Z,42.22
2023-05-03T20:41:55.076Z,42.27
2023-05-03T20:44:14.156Z,42.30
2023-05-03T20:46:23.695Z,42.13
2023-05-03T20:48:53.367Z,42.18
2023-05-03T20:51:24.422Z,41.85
2023-05-03T20:53:34.431Z,41.17
2023-05-03T20:55:43.909Z,41.09
2023-05-03T20:57:53.541Z,40.70
2023-05-03T21:00:23.012Z,40.64
2023-05-03T21:02:54.830Z,40.65
2023-05-03T21:05:08.197Z,40.61
2023-05-03T21:07:28.655Z,40.71
2023-05-03T21:09:42.045Z,40.59
2023-05-03T21:11:51.488Z,40.54
2023-05-03T21:14:04.042Z,40.42
2023-05-03T21:16:13.571Z,40.78
2023-05-03T21:18:25.041Z,41.04
2023-05-03T21:20:44.705Z,41.14
2023-05-03T21:22:57.116Z,40.93
2023-05-03T21:25:07.038Z,40.71
2023-05-03T21:27:19.802Z,40.95
2023-05-03T21:29:43.173Z,40.82
2023-05-03T21:32:12.388Z,40.71
2023-05-03T21:34:25.805Z,40.91
2023-05-03T21:36:55.503Z,40.56
2023-05-03T21:39:05.392Z,40.74
2023-05-03T21:41:35.148Z,40.93
2023-05-03T21:44:04.356Z,41.02
2023-05-03T21:46:24.918Z,40.73
2023-05-03T21:48:34.824Z,40.71
2023-05-03T21:51:04.105Z,40.74
2023-05-03T21:53:35.808Z,40.68
2023-05-03T21:56:05.400Z,41.03
2023-05-03T21:58:18.148Z,41.03
2023-05-03T22:00:36.454Z,40.57
2023-05-03T22:02:56.573Z,40.59
2023-05-03T22:05:06.198Z,40.69
2023-05-03T22:07:39.055Z,40.44
2023-05-03T22:09:52.050Z,40.43
2023-05-03T22:12:05.961Z,40.29
2023-05-03T22:14:21.606Z,40.30
2023-05-03T22:16:30.950Z,40.21
2023-05-03T22:18:40.222Z,40.10
2023-05-03T22:20:49.333Z,40.40
2023-05-03T22:22:59.078Z,40.20
2023-05-03T22:25:09.576Z,40.12
2023-05-03T22:27:18.734Z,40.12
2023-05-03T22:29:28.089Z,40.25
2023-05-03T22:31:37.202Z,40.18
2023-05-03T22:33:47.633Z,39.62
2023-05-03T22:35:57.126Z,39.63
2023-05-03T22:38:06.718Z,39.90
2023-05-03T22:40:16.237Z,39.83
2023-05-03T22:42:25.788Z,39.95
2023-05-03T22:44:34.977Z,39.86
2023-05-03T22:46:44.150Z,39.84
2023-05-03T22:48:53.524Z,40.03
2023-05-03T22:51:02.715Z,40.28
2023-05-03T22:53:11.879Z,40.62
2023-05-03T22:55:21.896Z,40.65
2023-05-03T22:57:31.139Z,40.92
2023-05-03T22:59:40.312Z,41.02
2023-05-03T23:01:50.019Z,40.95
2023-05-03T23:04:00.556Z,41.32
2023-05-03T23:06:10.242Z,41.38
2023-05-03T23:08:19.495Z,41.24
2023-05-03T23:10:28.892Z,41.32
2023-05-03T23:12:38.303Z,41.18
2023-05-03T23:14:47.720Z,41.66
2023-05-03T23:16:56.964Z,41.96
2023-05-03T23:19:06.373Z,42.17
2023-05-03T23:21:15.554Z,42.27
2023-05-03T23:23:25.277Z,42.28
2023-05-03T23:25:35.269Z,42.16
2023-05-03T23:27:44.220Z,42.32
2023-05-03T23:29:54.339Z,42.04
2023-05-03T23:32:04.299Z,41.87
2023-05-03T23:34:14.141Z,41.76
2023-05-03T23:36:26.370Z,41.67
2023-05-03T23:38:38.037Z,41.56
2023-05-03T23:40:47.184Z,41.60
2023-05-03T23:42:56.590Z,41.67
2023-05-03T23:45:05.944Z,41.75
2023-05-03T23:47:15.441Z,42.00
2023-05-03T23:49:24.924Z,41.86
2023-05-03T23:51:34.916Z,41.92
2023-05-03T23:53:44.240Z,42.10
2023-05-03T23:55:54.289Z,42.03
2023-05-03T23:58:03.492Z,42.03
